Portada
METAR-TAF:

METAR-TAF

Aeroports :

Port Elisabeth, Sud-àfrica

latitud: 33-59S, longitud: 025-36E, altitud: 61 m

Observació

L'informe es va fer fa 47 minuts, a les 12:00 UTC
Vent 18 kt del Oest
Temperatura 16°C
Humitat 51%
Pressió 1020 hPa
Visibilitat 10 km o més
Escasses núvols a una alçada de 4600 ft

METAR: FAPE 271200Z 26018KT 9999 FEW046 16/06 Q1020

Hora: 14:47 (12:47 UTC)

Pronòstic

L'informe es va fer fa 2 hores i 47 minuts, a les 10:00 UTC
Pronòstic vàlid del 27 a les 12 UTC al 28 a les 12 UTC
Vent 18 kt del Oest
Visibilitat 10 km o més
sense núvols per sota de 1500 mi sense presència de cumulonimbus.
Evolucionant progressivament
l' 28 a les 04 UTC al 28 a les 06 UTC
Vent 11 kt del Nord-Oest
Evolucionant progressivament
l' 28 a les 10 UTC al 28 a les 12 UTC
Núvols disperses a una alçada de 1500 ft

TAF: FAPE 271000Z 2712/2812 26018KT CAVOK TX22/2812Z TN10/2803Z BECMG 2804/2806 32011KT BECMG 2810/2812 SCT015

Observacions i pronòstics meteorològics de més de 4000 aeroports (METAR i TAF).

Les estacions disponibles són els punts grocs i vermells al mapa.

Posi el ratolí al punt desitjat per veure el nom de l'estació.

Feu clic per veure les observacions i els pronòstics meteorològics.

Per canviar el mapa: feu clic els botons verds amb una creu de color negre per apropar; al botó verd amb un guió per allunyar la imatge; o en les fletxes verdes per a mapes adjacents.


METAR-TAF: